ADDS METAR Data INFO
IDs: Format: Raw Decoded Include TAF

Data at: 1335 UTC 23 Jun 2018

KRNO 231255Z 00000KT 10SM CLR 16/04 A3007 RMK AO2 SLP125 T01610044
KRNO 231155Z 31004KT 10SM CLR 18/03 A3006 RMK AO2 SLP117 T01830033 10267 20183 53005
KRNO 231055Z 01007KT 10SM CLR 19/02 A3005 RMK AO2 SLP113 T01890022
KRNO 230955Z 01005KT 10SM CLR 21/02 A3004 RMK AO2 SLP109 T02060022
KRNO 230855Z 36010KT 10SM CLR 21/03 A3004 RMK AO2 SLP109 T02110028 53004
KRNO 230755Z 01008KT 10SM CLR 23/06 A3004 RMK AO2 SLP108 T02280056 403500150
KRNO 230655Z 33007KT 10SM CLR 25/06 A3003 RMK AO2 SLP105 T02500061
KRNO 230555Z 32008KT 10SM CLR 27/04 A3003 RMK AO2 SLP104 T02670044 10344 20267 51012
KRNO 230455Z 32008KT 10SM CLR 27/04 A3002 RMK AO2 SLP105 T02670039
KRNO 230355Z 28010KT 10SM FEW250 28/02 A3000 RMK AO2 SLP099 T02830017
KRNO 230255Z 33013KT 10SM SCT250 31/03 A2999 RMK AO2 SLP097 T03060033 55002
KRNO 230155Z 32015G21KT 10SM BKN250 32/03 A2998 RMK AO2 SLP093 T03220028
KRNO 230055Z 29012KT 10SM SCT250 34/M01 A2998 RMK AO2 PK WND 01029/0023 WSHFT 0019 SLP094 T03391011
KRNO 230039Z 28013G19KT 10SM SCT250 34/M02 A2998 RMK AO2 PK WND 01029/0023 WSHFT 0019 T03391017
KRNO 222355Z 33011G19KT 10SM SCT250 34/01 A3000 RMK AO2 SLP098 T03390006 10350 20272 56020
KRNO 222255Z VRB04KT 10SM BKN250 33/M02 A3001 RMK AO2 SLP105 T03331022
KRNO 222155Z VRB03KT 10SM FEW160 FEW200 BKN250 33/M02 A3003 RMK AO2 SLP109 T03331022
KRNO 222055Z 32008KT 10SM FEW170 FEW200 BKN250 33/M01 A3006 RMK AO2 SLP120 T03331006 58022
KRNO 221955Z VRB03KT 10SM FEW120 SCT200 BKN250 31/M01 A3009 RMK AO2 SLP129 T03111006
KRNO 221855Z VRB04KT 10SM FEW100 BKN200 29/01 A3012 RMK AO2 SLP138 T02890011
KRNO 221755Z 22004KT 10SM FEW100 FEW200 28/01 A3014 RMK AO2 SLP146 T02780006 10278 20150 58014
KRNO 221655Z 00000KT 10SM FEW200 24/01 A3016 RMK AO2 SLP156 T02440011
KRNO 221555Z 00000KT 10SM FEW200 21/01 A3018 RMK AO2 SLP164 T02110011
KRNO 221455Z 00000KT 10SM FEW200 18/02 A3019 RMK AO2 SLP168 T01830017 51009
KRNO 221355Z 19004KT 10SM FEW200 16/02 A3019 RMK AO2 SLP166 T01610017
KRNO 221255Z 00000KT 10SM FEW200 15/01 A3017 RMK AO2 SLP164 T01500011
KRNO 221155Z 30004KT 10SM FEW200 16/01 A3016 RMK AO2 SLP154 T01610006 10233 20150 53001
KRNO 221055Z 00000KT 10SM CLR 16/M01 A3015 RMK AO2 SLP151 T01561006
KRNO 220955Z 25003KT 10SM CLR 17/M01 A3015 RMK AO2 SLP150 T01721006
KRNO 220855Z 19006KT 10SM CLR 18/00 A3015 RMK AO2 SLP154 T01780000 51008
KRNO 220755Z 26003KT 10SM CLR 21/00 A3015 RMK AO2 SLP152 T02060000 403390139
KRNO 220655Z 29004KT 10SM CLR 22/01 A3014 RMK AO2 SLP149 T02220006
KRNO 220555Z 24005KT 10SM FEW200 23/01 A3013 RMK AO2 SLP143 T02330006 10328 20233 51012
KRNO 220455Z 27006KT 10SM FEW200 24/M01 A3013 RMK AO2 SLP146 T02441006
KRNO 220355Z 28006KT 10SM FEW200 26/M02 A3010 RMK AO2 SLP140 T02611017
KRNO 220255Z 33013KT 10SM FEW200 28/M04 A3009 RMK AO2 SLP134 T02831039 53005
KRNO 220155Z 30010G18KT 10SM FEW090 FEW200 31/M04 A3008 RMK AO2 SLP130 T03111039